createdAt,value
2022-09-25T00:00:23.963Z,5.95
2022-09-25T00:01:21.403Z,8.73
2022-09-25T00:02:18.123Z,6.38
2022-09-25T00:03:16.124Z,7.13
2022-09-25T00:04:12.779Z,7.40
2022-09-25T00:05:09.567Z,4.45
2022-09-25T00:06:09.732Z,8.65
2022-09-25T00:07:06.321Z,6.22
2022-09-25T00:08:04.256Z,5.18
2022-09-25T00:09:06.822Z,6.30
2022-09-25T00:10:06.975Z,4.75
2022-09-25T00:11:13.257Z,4.15
2022-09-25T00:12:09.828Z,6.68
2022-09-25T00:13:06.405Z,5.97
2022-09-25T00:14:03.133Z,6.32
2022-09-25T00:14:59.801Z,4.10
2022-09-25T00:15:58.017Z,4.45
2022-09-25T00:16:54.752Z,6.20
2022-09-25T00:17:51.692Z,3.38
2022-09-25T00:19:07.319Z,4.63
2022-09-25T00:20:04.209Z,6.22
2022-09-25T00:21:01.553Z,3.42
2022-09-25T00:21:58.210Z,9.52
2022-09-25T00:22:54.888Z,4.85
2022-09-25T00:23:51.642Z,6.15
2022-09-25T00:24:48.781Z,5.13
2022-09-25T00:25:53.606Z,3.72
2022-09-25T00:26:50.315Z,4.22
2022-09-25T00:27:48.461Z,4.35
2022-09-25T00:28:45.114Z,4.13
2022-09-25T00:29:41.834Z,6.22
2022-09-25T00:30:40.711Z,14.90
2022-09-25T00:31:37.357Z,6.60
2022-09-25T00:32:34.196Z,4.28
2022-09-25T00:33:32.731Z,6.25
2022-09-25T00:34:29.429Z,7.32
2022-09-25T00:35:26.077Z,9.15
2022-09-25T00:36:22.748Z,9.02
2022-09-25T00:37:19.328Z,8.90
2022-09-25T00:38:15.942Z,6.10
2022-09-25T00:39:12.569Z,7.82
2022-09-25T00:40:09.951Z,6.72
2022-09-25T00:41:07.912Z,10.05
2022-09-25T00:42:04.610Z,4.07
2022-09-25T00:43:01.241Z,6.40
2022-09-25T00:43:59.240Z,5.00
2022-09-25T00:44:57.490Z,9.15
2022-09-25T00:45:54.132Z,4.70
2022-09-25T00:46:50.853Z,7.95
2022-09-25T00:47:47.441Z,7.13
2022-09-25T00:49:14.855Z,7.10
2022-09-25T00:50:21.583Z,5.10
2022-09-25T00:51:22.057Z,11.88
2022-09-25T00:52:18.900Z,6.78
2022-09-25T00:53:22.034Z,6.70
2022-09-25T00:54:33.318Z,9.00
2022-09-25T00:55:32.742Z,6.60
2022-09-25T00:56:34.723Z,8.88
2022-09-25T00:57:35.048Z,8.57
2022-09-25T00:58:35.664Z,3.40
2022-09-25T00:59:41.251Z,4.97
2022-09-25T01:00:37.940Z,6.53
2022-09-25T01:01:34.605Z,6.18
2022-09-25T01:02:35.084Z,7.70
2022-09-25T01:03:31.825Z,10.65
2022-09-25T01:04:33.838Z,6.72
2022-09-25T01:05:36.854Z,7.78
2022-09-25T01:06:35.128Z,9.15
2022-09-25T01:07:39.198Z,9.68
2022-09-25T01:08:37.957Z,6.57
2022-09-25T01:09:35.815Z,7.95
2022-09-25T01:10:32.855Z,7.40
2022-09-25T01:11:31.138Z,6.72
2022-09-25T01:12:28.101Z,10.32
2022-09-25T01:13:25.563Z,8.55
2022-09-25T01:14:22.686Z,9.70
2022-09-25T01:15:23.683Z,7.60
2022-09-25T01:16:43.559Z,13.20
2022-09-25T01:17:58.579Z,9.45
2022-09-25T01:19:01.879Z,7.50
2022-09-25T01:20:16.693Z,8.88
2022-09-25T01:21:43.279Z,8.07
2022-09-25T01:22:55.053Z,11.23
2022-09-25T01:24:10.684Z,7.60
2022-09-25T01:25:58.388Z,9.23
2022-09-25T01:27:01.762Z,9.23
2022-09-25T01:28:07.401Z,6.78
2022-09-25T01:29:27.269Z,7.85
2022-09-25T01:30:24.194Z,9.13
2022-09-25T01:31:40.428Z,7.93
2022-09-25T01:33:10.844Z,6.22
2022-09-25T01:34:34.221Z,7.13
2022-09-25T01:35:34.581Z,8.43
2022-09-25T01:36:42.230Z,7.47
2022-09-25T01:37:45.738Z,7.38
2022-09-25T01:38:50.211Z,7.68
2022-09-25T01:40:13.333Z,7.50
2022-09-25T01:41:34.146Z,12.27
2022-09-25T01:42:43.021Z,5.20
2022-09-25T01:43:52.594Z,6.53
2022-09-25T01:45:06.310Z,9.73
2022-09-25T01:46:11.897Z,7.25
2022-09-25T01:47:18.878Z,8.52
2022-09-25T01:48:20.429Z,8.25
2022-09-25T01:49:45.866Z,5.65
2022-09-25T01:50:51.369Z,6.68
2022-09-25T01:51:55.749Z,8.68
2022-09-25T01:52:57.231Z,6.15
2022-09-25T01:53:58.268Z,9.05
2022-09-25T01:55:06.936Z,7.38
2022-09-25T01:56:19.345Z,6.82
2022-09-25T01:57:26.026Z,8.20
2022-09-25T01:58:31.971Z,7.80
2022-09-25T01:59:44.353Z,7.70
2022-09-25T02:00:50.451Z,8.68
2022-09-25T02:01:47.976Z,7.00
2022-09-25T02:02:55.472Z,9.50
2022-09-25T02:04:03.816Z,6.25
2022-09-25T02:05:14.983Z,7.47
2022-09-25T02:06:17.489Z,6.93
2022-09-25T02:08:23.201Z,8.95
2022-09-25T02:09:26.658Z,6.70
2022-09-25T02:10:30.054Z,7.35
2022-09-25T02:11:32.938Z,6.65
2022-09-25T02:12:40.926Z,6.38
2022-09-25T02:14:02.983Z,7.60
2022-09-25T02:15:05.817Z,7.18
2022-09-25T02:16:10.120Z,9.23
2022-09-25T02:17:12.642Z,14.40
2022-09-25T02:19:46.054Z,6.13
2022-09-25T02:20:46.423Z,5.03
2022-09-25T02:21:55.556Z,6.85
2022-09-25T02:22:55.656Z,5.30
2022-09-25T02:24:15.835Z,7.38
2022-09-25T02:25:25.566Z,3.50
2022-09-25T02:26:35.269Z,4.03
2022-09-25T02:27:33.883Z,7.43
2022-09-25T02:28:30.834Z,5.40
2022-09-25T02:29:27.452Z,4.55
2022-09-25T02:30:24.181Z,5.47
2022-09-25T02:31:26.488Z,7.63
2022-09-25T02:32:29.409Z,5.15
2022-09-25T02:33:26.629Z,5.53
2022-09-25T02:34:23.897Z,17.85
2022-09-25T02:35:21.218Z,11.52
2022-09-25T02:36:20.349Z,9.05
2022-09-25T02:37:18.405Z,5.90
2022-09-25T02:38:16.092Z,10.38
2022-09-25T02:39:16.048Z,11.05
2022-09-25T02:40:12.991Z,14.13
2022-09-25T02:41:17.911Z,8.75
2022-09-25T02:42:14.887Z,10.82
2022-09-25T02:43:38.403Z,5.55
2022-09-25T02:45:10.510Z,5.88
2022-09-25T02:46:45.783Z,10.20
2022-09-25T02:48:04.053Z,6.05
2022-09-25T02:49:35.665Z,7.85
2022-09-25T02:50:41.244Z,13.65
2022-09-25T02:51:52.227Z,5.68
2022-09-25T02:53:30.793Z,9.18
2022-09-25T02:55:02.817Z,14.23
2022-09-25T02:56:45.982Z,11.15
2022-09-25T02:57:53.449Z,5.30
2022-09-25T02:58:54.979Z,5.65
2022-09-25T02:59:59.401Z,7.57
2022-09-25T03:00:57.892Z,9.60
2022-09-25T03:01:57.020Z,9.38
2022-09-25T03:02:59.626Z,7.10
2022-09-25T03:03:59.706Z,7.82
2022-09-25T03:04:58.892Z,12.23
2022-09-25T03:05:57.661Z,7.05
2022-09-25T03:06:54.672Z,12.30
2022-09-25T03:08:12.220Z,8.73
2022-09-25T03:09:11.919Z,10.55
2022-09-25T03:10:09.055Z,7.28
2022-09-25T03:11:14.114Z,7.28
2022-09-25T03:12:10.739Z,8.68
2022-09-25T03:13:18.854Z,7.15
2022-09-25T03:14:15.477Z,14.23
2022-09-25T03:15:13.197Z,9.80
2022-09-25T03:16:20.347Z,11.88
2022-09-25T03:17:17.650Z,6.50
2022-09-25T03:18:14.760Z,7.55
2022-09-25T03:19:11.913Z,7.57
2022-09-25T03:20:10.038Z,5.72
2022-09-25T03:21:06.736Z,10.10
2022-09-25T03:22:03.510Z,8.00
2022-09-25T03:23:00.104Z,11.18
2022-09-25T03:23:57.098Z,6.57
2022-09-25T03:24:54.085Z,7.93
2022-09-25T03:25:54.061Z,9.18
2022-09-25T03:26:51.234Z,8.05
2022-09-25T03:27:47.819Z,11.95
2022-09-25T03:28:44.580Z,8.55
2022-09-25T03:29:42.733Z,11.82
2022-09-25T03:30:41.099Z,14.55
2022-09-25T03:31:37.963Z,12.07
2022-09-25T03:32:34.721Z,14.90
2022-09-25T03:33:38.084Z,9.02
2022-09-25T03:34:34.671Z,10.70
2022-09-25T03:35:31.229Z,10.50
2022-09-25T03:36:30.082Z,13.05
2022-09-25T03:37:26.679Z,8.63
2022-09-25T03:38:23.298Z,8.65
2022-09-25T03:39:19.939Z,9.02
2022-09-25T03:40:16.788Z,9.05
2022-09-25T03:41:15.705Z,7.38
2022-09-25T03:42:12.422Z,7.50
2022-09-25T03:44:05.047Z,8.75
2022-09-25T03:45:02.265Z,9.70
2022-09-25T03:45:58.983Z,12.10
2022-09-25T03:46:55.614Z,8.40
2022-09-25T03:47:52.201Z,10.57
2022-09-25T03:48:49.057Z,10.63
2022-09-25T03:49:45.656Z,8.45
2022-09-25T03:50:42.312Z,5.88
2022-09-25T03:51:39.160Z,8.80
2022-09-25T03:52:35.752Z,7.70
2022-09-25T03:53:33.655Z,9.82
2022-09-25T03:54:30.380Z,8.70
2022-09-25T03:55:27.020Z,9.57
2022-09-25T03:56:26.629Z,7.93
2022-09-25T03:57:23.245Z,8.55
2022-09-25T03:58:20.441Z,9.18
2022-09-25T03:59:17.042Z,10.25
2022-09-25T04:00:14.732Z,9.00
2022-09-25T04:01:11.680Z,8.68
2022-09-25T04:02:08.879Z,6.55
2022-09-25T04:03:05.585Z,10.10
2022-09-25T04:04:03.381Z,9.40
2022-09-25T04:05:00.262Z,11.18
2022-09-25T04:05:59.019Z,8.70
2022-09-25T04:06:56.229Z,11.30
2022-09-25T04:07:52.871Z,8.23
2022-09-25T04:08:50.141Z,6.95
2022-09-25T04:09:46.755Z,8.20
2022-09-25T04:10:43.600Z,8.57
2022-09-25T04:11:40.217Z,9.77
2022-09-25T04:12:36.829Z,9.73
2022-09-25T04:13:36.495Z,11.75
2022-09-25T04:14:33.105Z,6.07
2022-09-25T04:15:30.250Z,6.70
2022-09-25T04:16:28.087Z,9.70
2022-09-25T04:17:24.783Z,10.35
2022-09-25T04:18:21.360Z,6.97
2022-09-25T04:19:18.009Z,15.60
2022-09-25T04:20:14.888Z,12.80
2022-09-25T04:21:13.328Z,10.82
2022-09-25T04:22:09.913Z,12.93
2022-09-25T04:23:06.532Z,9.63
2022-09-25T04:24:21.673Z,9.73
2022-09-25T04:25:25.690Z,8.07
2022-09-25T04:26:22.577Z,9.55
2022-09-25T04:27:22.914Z,13.15
2022-09-25T04:28:21.149Z,9.23
2022-09-25T04:29:18.104Z,12.13
2022-09-25T04:30:14.747Z,15.10
2022-09-25T04:31:11.353Z,11.85
2022-09-25T04:32:27.048Z,6.78
2022-09-25T04:33:42.147Z,9.48
2022-09-25T04:34:38.726Z,13.55
2022-09-25T04:35:35.368Z,7.65
2022-09-25T04:36:32.591Z,8.52
2022-09-25T04:37:29.256Z,7.90
2022-09-25T04:38:25.834Z,7.90
2022-09-25T04:39:22.517Z,9.05
2022-09-25T04:40:19.280Z,7.35
2022-09-25T04:41:17.752Z,8.40
2022-09-25T04:42:15.493Z,14.05
2022-09-25T04:43:12.103Z,9.07
2022-09-25T04:44:08.742Z,12.00
2022-09-25T04:45:06.146Z,10.98
2022-09-25T04:46:05.092Z,9.45
2022-09-25T04:47:01.753Z,8.75
2022-09-25T04:48:00.322Z,11.73
2022-09-25T04:48:57.034Z,8.88
2022-09-25T04:49:53.644Z,10.65
2022-09-25T04:50:51.678Z,11.45
2022-09-25T04:51:48.344Z,10.98
2022-09-25T04:52:44.925Z,9.00
2022-09-25T04:53:41.938Z,8.52
2022-09-25T04:54:38.489Z,6.50
2022-09-25T04:55:35.089Z,8.52
2022-09-25T04:56:31.774Z,6.68
2022-09-25T04:57:56.551Z,10.70
2022-09-25T04:58:46.548Z,7.93
2022-09-25T04:59:43.281Z,8.07
2022-09-25T05:00:41.044Z,8.82
2022-09-25T05:01:38.559Z,9.50
2022-09-25T05:02:35.379Z,11.77
2022-09-25T05:03:32.201Z,10.10
2022-09-25T05:04:28.873Z,13.25
2022-09-25T05:05:28.257Z,9.75
2022-09-25T05:06:27.010Z,7.47
2022-09-25T05:07:23.616Z,6.88
2022-09-25T05:08:20.308Z,7.72
2022-09-25T05:09:16.967Z,8.20
2022-09-25T05:10:14.713Z,9.43
2022-09-25T05:11:11.500Z,10.48
2022-09-25T05:12:08.206Z,8.32
2022-09-25T05:13:05.377Z,8.02
2022-09-25T05:14:02.452Z,7.32
2022-09-25T05:14:59.093Z,7.00
2022-09-25T05:15:56.439Z,12.27
2022-09-25T05:16:53.185Z,6.93
2022-09-25T05:17:50.141Z,7.63
2022-09-25T05:18:46.807Z,6.97
2022-09-25T05:19:43.446Z,9.77
2022-09-25T05:20:40.096Z,10.98
2022-09-25T05:21:36.819Z,8.75
2022-09-25T05:22:33.439Z,8.43
2022-09-25T05:23:30.395Z,9.75
2022-09-25T05:24:27.155Z,10.57
2022-09-25T05:25:27.927Z,8.15
2022-09-25T05:26:24.789Z,8.20
2022-09-25T05:27:22.598Z,8.80
2022-09-25T05:28:19.210Z,6.13
2022-09-25T05:29:15.833Z,12.43
2022-09-25T05:30:12.872Z,8.00
2022-09-25T05:31:09.976Z,7.63
2022-09-25T05:32:06.910Z,7.43
2022-09-25T05:33:03.600Z,7.90
2022-09-25T05:34:00.203Z,8.27
2022-09-25T05:34:56.844Z,9.13
2022-09-25T05:35:53.474Z,7.28
2022-09-25T05:36:50.453Z,8.43
2022-09-25T05:37:47.289Z,10.23
2022-09-25T05:38:43.881Z,7.40
2022-09-25T05:39:40.474Z,8.02
2022-09-25T05:40:39.389Z,7.18
2022-09-25T05:41:36.382Z,7.63
2022-09-25T05:42:33.476Z,11.70
2022-09-25T05:43:30.156Z,9.45
2022-09-25T05:44:28.429Z,11.63
2022-09-25T05:45:25.206Z,7.90
2022-09-25T05:46:21.833Z,7.30
2022-09-25T05:47:18.776Z,9.75
2022-09-25T05:48:16.279Z,11.70
2022-09-25T05:49:12.962Z,6.85
2022-09-25T05:50:16.000Z,8.98
2022-09-25T05:51:12.785Z,8.30
2022-09-25T05:52:09.362Z,10.10
2022-09-25T05:53:06.228Z,7.18
2022-09-25T05:54:02.847Z,7.47
2022-09-25T05:54:59.445Z,7.10
2022-09-25T05:55:59.871Z,8.38
2022-09-25T05:56:56.637Z,6.15
2022-09-25T05:57:53.273Z,8.48
2022-09-25T05:58:49.954Z,6.95
2022-09-25T05:59:46.633Z,6.93
2022-09-25T06:00:43.490Z,5.75
2022-09-25T06:01:41.303Z,6.38
2022-09-25T06:02:38.050Z,8.05
2022-09-25T06:03:35.054Z,8.80
2022-09-25T06:04:31.782Z,9.50
2022-09-25T06:05:28.747Z,6.20
2022-09-25T06:06:27.577Z,8.45
2022-09-25T06:07:24.382Z,8.23
2022-09-25T06:08:20.971Z,6.97
2022-09-25T06:09:17.528Z,10.50
2022-09-25T06:10:14.209Z,15.77
2022-09-25T06:11:11.563Z,8.38
2022-09-25T06:12:08.147Z,7.00
2022-09-25T06:13:05.270Z,7.78
2022-09-25T06:14:02.844Z,7.22
2022-09-25T06:14:59.494Z,6.55
2022-09-25T06:15:57.227Z,6.65
2022-09-25T06:16:54.545Z,6.05
2022-09-25T06:17:51.557Z,7.18
2022-09-25T06:18:48.247Z,10.65
2022-09-25T06:19:44.848Z,9.20
2022-09-25T06:20:41.460Z,12.98
2022-09-25T06:21:38.020Z,7.22
2022-09-25T06:22:34.622Z,6.50
2022-09-25T06:23:31.847Z,6.13
2022-09-25T06:24:28.511Z,10.45
2022-09-25T06:25:27.393Z,7.55
2022-09-25T06:26:25.902Z,5.75
2022-09-25T06:27:22.542Z,7.72
2022-09-25T06:28:19.195Z,9.40
2022-09-25T06:29:15.873Z,7.70
2022-09-25T06:30:12.847Z,10.80
2022-09-25T06:31:10.122Z,6.60
2022-09-25T06:32:06.838Z,6.68
2022-09-25T06:33:09.617Z,8.23
2022-09-25T06:34:06.524Z,13.77
2022-09-25T06:35:04.419Z,10.20
2022-09-25T06:36:01.225Z,28.27
2022-09-25T06:37:00.489Z,24.60
2022-09-25T06:37:59.233Z,13.35
2022-09-25T06:38:56.229Z,17.15
2022-09-25T06:39:52.917Z,10.68
2022-09-25T06:40:49.581Z,19.00
2022-09-25T06:41:46.342Z,18.13
2022-09-25T06:42:42.962Z,23.60
2022-09-25T06:43:39.571Z,13.38
2022-09-25T06:44:36.175Z,21.73
2022-09-25T06:45:34.580Z,27.27
2022-09-25T06:46:31.187Z,298.70
2022-09-25T06:47:27.926Z,354.30
2022-09-25T06:48:24.635Z,126.20
2022-09-25T06:49:22.011Z,29.52
2022-09-25T06:50:18.674Z,79.05
2022-09-25T06:51:15.224Z,72.13
2022-09-25T06:52:12.496Z,99.75
2022-09-25T06:53:11.268Z,30.77
2022-09-25T06:54:08.074Z,16.23
2022-09-25T06:55:05.084Z,54.03
2022-09-25T06:56:02.599Z,228.40
2022-09-25T06:56:59.198Z,209.57
2022-09-25T06:57:55.830Z,275.23
2022-09-25T06:58:52.519Z,156.63
2022-09-25T06:59:49.146Z,47.38
2022-09-25T07:00:47.563Z,51.20
2022-09-25T07:01:44.296Z,33.30
2022-09-25T07:02:59.588Z,152.95
2022-09-25T07:03:56.326Z,19.73
2022-09-25T07:04:52.939Z,17.60
2022-09-25T07:05:49.734Z,27.65
2022-09-25T07:06:47.259Z,11.77
2022-09-25T07:07:44.461Z,9.95
2022-09-25T07:08:43.680Z,34.50
2022-09-25T07:09:40.294Z,35.92
2022-09-25T07:10:36.899Z,22.35
2022-09-25T07:11:33.502Z,12.15
2022-09-25T07:12:30.152Z,16.58
2022-09-25T07:13:30.062Z,18.00
2022-09-25T07:14:26.843Z,24.55
2022-09-25T07:15:23.417Z,8.32
2022-09-25T07:16:21.458Z,7.90
2022-09-25T07:17:18.088Z,15.30
2022-09-25T07:18:14.719Z,22.92
2022-09-25T07:19:11.323Z,16.95
2022-09-25T07:20:08.375Z,10.10
2022-09-25T07:21:13.839Z,18.77
2022-09-25T07:22:11.937Z,11.80
2022-09-25T07:23:08.624Z,11.23
2022-09-25T07:24:06.111Z,6.78
2022-09-25T07:25:02.701Z,9.23
2022-09-25T07:26:13.260Z,10.15
2022-09-25T07:27:09.826Z,9.30
2022-09-25T07:28:07.499Z,17.05
2022-09-25T07:29:06.360Z,6.90
2022-09-25T07:30:04.641Z,17.65
2022-09-25T07:31:11.124Z,13.35
2022-09-25T07:32:07.844Z,8.55
2022-09-25T07:33:04.701Z,9.88
2022-09-25T07:34:08.833Z,6.75
2022-09-25T07:35:05.576Z,7.90
2022-09-25T07:36:02.584Z,7.40
2022-09-25T07:36:59.323Z,8.45
2022-09-25T07:37:57.447Z,10.10
2022-09-25T07:38:54.673Z,7.78
2022-09-25T07:39:51.318Z,7.82
2022-09-25T07:40:47.975Z,8.43
2022-09-25T07:41:44.638Z,4.95
2022-09-25T07:42:42.001Z,4.50
2022-09-25T07:43:38.824Z,5.65
2022-09-25T07:44:38.167Z,7.85
2022-09-25T07:45:35.911Z,8.30
2022-09-25T07:46:32.635Z,6.03
2022-09-25T07:47:29.236Z,5.78
2022-09-25T07:48:27.161Z,6.30
2022-09-25T07:49:24.089Z,5.75
2022-09-25T07:50:20.732Z,6.53
2022-09-25T07:51:18.060Z,5.28
2022-09-25T07:52:14.793Z,6.95
2022-09-25T07:53:12.226Z,6.13
2022-09-25T07:54:09.058Z,11.10
2022-09-25T07:55:06.602Z,5.40
2022-09-25T07:56:06.916Z,10.23
2022-09-25T07:57:03.860Z,4.68
2022-09-25T07:58:00.426Z,8.10
2022-09-25T07:58:59.042Z,11.82
2022-09-25T07:59:55.754Z,5.20
2022-09-25T08:00:54.443Z,7.72
2022-09-25T08:01:53.873Z,18.90
2022-09-25T08:02:58.934Z,11.35
2022-09-25T08:03:55.889Z,4.10
2022-09-25T08:04:53.006Z,5.70
2022-09-25T08:06:01.057Z,5.82
2022-09-25T08:07:00.969Z,7.20
2022-09-25T08:07:57.556Z,5.22
2022-09-25T08:08:54.264Z,5.30
2022-09-25T08:09:50.879Z,5.32
2022-09-25T08:10:47.445Z,4.18
2022-09-25T08:11:44.201Z,4.38
2022-09-25T08:12:41.038Z,4.18
2022-09-25T08:13:38.793Z,4.13
2022-09-25T08:14:35.385Z,8.95
2022-09-25T08:15:32.035Z,6.00
2022-09-25T08:16:28.749Z,4.45
2022-09-25T08:17:31.349Z,4.22
2022-09-25T08:18:28.009Z,6.78
2022-09-25T08:19:24.654Z,5.47
2022-09-25T08:20:21.494Z,8.23
2022-09-25T08:21:20.378Z,5.80
2022-09-25T08:22:17.014Z,5.53
2022-09-25T08:23:13.673Z,7.00
2022-09-25T08:24:10.985Z,5.53
2022-09-25T08:25:08.091Z,5.18
2022-09-25T08:26:04.671Z,6.78
2022-09-25T08:27:01.266Z,6.53
2022-09-25T08:27:57.972Z,6.90
2022-09-25T08:28:55.483Z,4.80
2022-09-25T08:29:52.073Z,3.83
2022-09-25T08:30:49.052Z,5.68
2022-09-25T08:31:45.801Z,5.32
2022-09-25T08:32:42.410Z,8.25
2022-09-25T08:33:40.380Z,8.95
2022-09-25T08:34:41.094Z,4.10
2022-09-25T08:35:42.586Z,5.93
2022-09-25T08:36:39.190Z,10.80
2022-09-25T08:37:41.667Z,5.68
2022-09-25T08:39:34.707Z,7.18
2022-09-25T08:40:33.926Z,3.50
2022-09-25T08:41:44.366Z,4.35
2022-09-25T08:42:41.149Z,8.10
2022-09-25T08:43:43.516Z,5.25
2022-09-25T08:45:02.436Z,5.32
2022-09-25T08:46:23.190Z,5.78
2022-09-25T08:47:43.975Z,9.38
2022-09-25T08:49:06.185Z,5.45
2022-09-25T08:50:23.603Z,7.07
2022-09-25T08:51:21.637Z,5.07
2022-09-25T08:52:21.512Z,3.78
2022-09-25T08:53:25.057Z,3.65
2022-09-25T08:54:27.274Z,9.73
2022-09-25T08:55:57.853Z,11.52
2022-09-25T08:57:19.668Z,15.55
2022-09-25T08:58:47.687Z,4.78
2022-09-25T08:59:48.838Z,7.25
2022-09-25T09:00:45.742Z,3.45
2022-09-25T09:01:42.569Z,6.93
2022-09-25T09:02:47.091Z,8.15
2022-09-25T09:03:53.869Z,9.63
2022-09-25T09:04:56.591Z,8.48
2022-09-25T09:06:01.277Z,5.18
2022-09-25T09:07:25.681Z,2.40
2022-09-25T09:08:25.648Z,3.55
2022-09-25T09:09:29.851Z,6.10
2022-09-25T09:10:46.437Z,5.28
2022-09-25T09:12:04.322Z,7.25
2022-09-25T09:13:13.700Z,7.10
2022-09-25T09:14:17.647Z,3.92
2022-09-25T09:15:42.456Z,2.83
2022-09-25T09:16:42.507Z,2.88
2022-09-25T09:17:42.595Z,7.63
2022-09-25T09:18:41.310Z,15.77
2022-09-25T09:19:38.350Z,8.98
2022-09-25T09:20:50.042Z,18.85
2022-09-25T09:22:12.348Z,5.90
2022-09-25T09:23:16.755Z,7.20
2022-09-25T09:24:18.946Z,4.88
2022-09-25T09:25:29.620Z,3.03
2022-09-25T09:26:41.569Z,4.03
2022-09-25T09:28:21.438Z,3.15
2022-09-25T09:29:27.054Z,4.88
2022-09-25T09:30:31.971Z,6.30
2022-09-25T09:31:56.707Z,4.72
2022-09-25T09:32:58.688Z,4.75
2022-09-25T09:34:46.455Z,2.60
2022-09-25T09:35:46.634Z,2.22
2022-09-25T09:36:53.007Z,6.60
2022-09-25T09:38:05.142Z,10.65
2022-09-25T09:39:16.905Z,6.25
2022-09-25T09:40:51.834Z,3.42
2022-09-25T09:41:54.789Z,2.38
2022-09-25T09:43:03.829Z,5.18
2022-09-25T09:44:19.367Z,3.47
2022-09-25T09:45:36.960Z,4.47
2022-09-25T09:46:48.943Z,2.83
2022-09-25T09:47:57.447Z,2.40
2022-09-25T09:49:14.262Z,4.97
2022-09-25T09:50:52.312Z,3.83
2022-09-25T09:52:14.580Z,2.83
2022-09-25T09:53:37.348Z,2.92
2022-09-25T09:54:43.089Z,4.47
2022-09-25T09:55:47.084Z,2.30
2022-09-25T09:56:47.855Z,3.05
2022-09-25T09:57:51.269Z,3.35
2022-09-25T09:58:58.440Z,2.80
2022-09-25T10:00:07.397Z,3.03
2022-09-25T10:01:16.256Z,2.50
2022-09-25T10:02:30.783Z,2.10
2022-09-25T10:03:32.688Z,2.22
2022-09-25T10:04:38.108Z,3.03
2022-09-25T10:05:43.889Z,5.43
2022-09-25T10:07:04.331Z,5.75
2022-09-25T10:08:01.267Z,4.60
2022-09-25T10:08:57.887Z,4.30
2022-09-25T10:09:56.790Z,6.65
2022-09-25T10:10:55.006Z,3.28
2022-09-25T10:11:59.870Z,5.78
2022-09-25T10:12:56.893Z,5.65
2022-09-25T10:13:53.925Z,7.65
2022-09-25T10:14:51.816Z,3.63
2022-09-25T10:16:00.427Z,2.95
2022-09-25T10:16:57.529Z,3.83
2022-09-25T10:17:57.672Z,3.08
2022-09-25T10:19:04.163Z,3.53
2022-09-25T10:20:04.792Z,4.32
2022-09-25T10:21:11.391Z,2.47
2022-09-25T10:22:16.992Z,3.13
2022-09-25T10:23:53.508Z,5.80
2022-09-25T10:24:52.982Z,4.22
2022-09-25T10:25:55.126Z,7.13
2022-09-25T10:26:52.660Z,2.97
2022-09-25T10:27:49.755Z,2.38
2022-09-25T10:28:46.834Z,6.40
2022-09-25T10:29:43.472Z,5.07
2022-09-25T10:30:46.581Z,2.80
2022-09-25T10:31:43.400Z,3.92
2022-09-25T10:33:13.314Z,3.42
2022-09-25T10:34:12.764Z,5.82
2022-09-25T10:35:18.298Z,15.82
2022-09-25T10:36:29.211Z,5.43
2022-09-25T10:37:34.833Z,3.80
2022-09-25T10:38:39.300Z,7.40
2022-09-25T10:39:44.650Z,3.00
2022-09-25T10:40:46.646Z,2.92
2022-09-25T10:41:44.408Z,6.40
2022-09-25T10:42:42.296Z,1.77
2022-09-25T10:44:20.684Z,1.77
2022-09-25T10:45:23.019Z,3.92
2022-09-25T10:47:00.098Z,3.50
2022-09-25T10:48:15.380Z,3.72
2022-09-25T10:49:38.748Z,3.00
2022-09-25T10:50:36.994Z,4.45
2022-09-25T10:51:33.677Z,4.20
2022-09-25T10:52:48.248Z,2.83
2022-09-25T10:53:46.786Z,3.92
2022-09-25T10:54:45.729Z,3.25
2022-09-25T10:55:51.140Z,7.53
2022-09-25T10:56:49.274Z,4.93
2022-09-25T10:57:47.863Z,2.95
2022-09-25T10:58:44.449Z,2.42
2022-09-25T10:59:51.013Z,3.47
2022-09-25T11:00:59.566Z,2.40
2022-09-25T11:01:56.539Z,4.53
2022-09-25T11:03:00.514Z,2.92
2022-09-25T11:03:58.542Z,3.78
2022-09-25T11:04:57.118Z,2.40
2022-09-25T11:06:04.132Z,2.08
2022-09-25T11:07:08.141Z,3.80
2022-09-25T11:08:07.951Z,1.90
2022-09-25T11:09:12.552Z,2.00
2022-09-25T11:10:23.853Z,4.63
2022-09-25T11:11:26.927Z,2.78
2022-09-25T11:12:26.603Z,2.55
2022-09-25T11:13:27.150Z,2.78
2022-09-25T11:14:28.735Z,3.67
2022-09-25T11:15:27.791Z,2.43
2022-09-25T11:16:51.065Z,2.92
2022-09-25T11:17:51.716Z,3.63
2022-09-25T11:19:04.937Z,2.67
2022-09-25T11:20:16.773Z,4.78
2022-09-25T11:21:26.010Z,6.43
2022-09-25T11:22:36.233Z,6.38
2022-09-25T11:23:43.066Z,3.83
2022-09-25T11:24:47.152Z,2.85
2022-09-25T11:25:53.740Z,3.78
2022-09-25T11:27:04.969Z,6.00
2022-09-25T11:28:13.306Z,3.17
2022-09-25T11:29:25.627Z,2.30
2022-09-25T11:30:24.047Z,3.33
2022-09-25T11:31:44.898Z,3.30
2022-09-25T11:33:00.213Z,4.80
2022-09-25T11:34:17.188Z,2.38
2022-09-25T11:35:30.555Z,3.40
2022-09-25T11:37:00.416Z,5.95
2022-09-25T11:38:06.097Z,7.50
2022-09-25T11:39:28.616Z,9.30
2022-09-25T11:41:07.680Z,12.30
2022-09-25T11:42:14.660Z,10.38
2022-09-25T11:43:15.425Z,31.02
2022-09-25T11:44:34.328Z,16.52
2022-09-25T11:45:36.823Z,20.27
2022-09-25T11:46:51.339Z,21.80
2022-09-25T11:47:58.767Z,17.52
2022-09-25T11:49:12.402Z,8.25
2022-09-25T11:50:16.085Z,7.95
2022-09-25T11:51:18.661Z,12.63
2022-09-25T11:53:02.636Z,5.57
2022-09-25T11:54:34.557Z,17.70
2022-09-25T11:55:54.544Z,35.20
2022-09-25T11:57:09.238Z,15.00
2022-09-25T11:58:15.050Z,22.75
2022-09-25T11:59:38.496Z,90.40
2022-09-25T12:00:45.410Z,81.65
2022-09-25T12:02:03.749Z,78.78
2022-09-25T12:03:15.957Z,22.75
2022-09-25T12:04:57.024Z,67.82
2022-09-25T12:06:16.808Z,32.22
2022-09-25T12:07:22.469Z,54.90
2022-09-25T12:08:57.289Z,82.30
2022-09-25T12:10:24.325Z,55.72
2022-09-25T12:11:23.777Z,51.33
2022-09-25T12:12:36.662Z,90.97
2022-09-25T12:13:49.485Z,63.20
2022-09-25T12:14:55.056Z,132.90
2022-09-25T12:16:07.646Z,48.25
2022-09-25T12:17:15.137Z,30.92
2022-09-25T12:18:43.948Z,42.55
2022-09-25T12:20:15.700Z,28.60
2022-09-25T12:21:34.203Z,8.95
2022-09-25T12:22:46.225Z,5.43
2022-09-25T12:24:03.727Z,27.20
2022-09-25T12:25:03.384Z,26.02
2022-09-25T12:26:05.827Z,26.42
2022-09-25T12:27:03.661Z,20.92
2022-09-25T12:28:16.477Z,9.73
2022-09-25T12:29:26.172Z,18.48
2022-09-25T12:30:27.249Z,11.55
2022-09-25T12:31:39.657Z,10.32
2022-09-25T12:32:57.352Z,16.95
2022-09-25T12:34:06.242Z,11.18
2022-09-25T12:35:23.957Z,9.35
2022-09-25T12:36:22.914Z,24.50
2022-09-25T12:37:43.064Z,10.82
2022-09-25T12:39:08.936Z,14.65
2022-09-25T12:40:16.595Z,16.25
2022-09-25T12:41:40.827Z,9.25
2022-09-25T12:42:50.337Z,7.47
2022-09-25T12:44:08.917Z,10.63
2022-09-25T12:45:20.213Z,7.00
2022-09-25T12:46:22.743Z,8.35
2022-09-25T12:47:50.448Z,4.72
2022-09-25T12:49:00.922Z,9.63
2022-09-25T12:50:10.166Z,7.40
2022-09-25T12:51:35.125Z,7.78
2022-09-25T12:52:45.096Z,6.68
2022-09-25T12:54:13.960Z,6.50
2022-09-25T12:55:18.877Z,2.33
2022-09-25T12:56:24.703Z,2.72
2022-09-25T12:57:31.767Z,6.30
2022-09-25T12:58:35.992Z,5.30
2022-09-25T12:59:46.507Z,3.65
2022-09-25T13:00:46.949Z,4.10
2022-09-25T13:01:58.904Z,4.45
2022-09-25T13:03:13.813Z,3.10
2022-09-25T13:04:35.240Z,1.77
2022-09-25T13:05:34.530Z,2.40
2022-09-25T13:06:42.586Z,2.22
2022-09-25T13:08:00.574Z,2.90
2022-09-25T13:09:10.426Z,3.65
2022-09-25T13:10:47.452Z,1.80
2022-09-25T13:11:50.969Z,1.77
2022-09-25T13:12:50.046Z,4.85
2022-09-25T13:13:54.015Z,4.63
2022-09-25T13:15:00.162Z,3.55
2022-09-25T13:15:59.425Z,2.50
2022-09-25T13:16:57.453Z,1.98
2022-09-25T13:17:55.811Z,2.72
2022-09-25T13:19:13.249Z,5.10
2022-09-25T13:20:28.558Z,5.35
2022-09-25T13:21:31.628Z,3.17
2022-09-25T13:22:28.291Z,2.28
2022-09-25T13:23:33.683Z,3.35
2022-09-25T13:24:39.096Z,2.13
2022-09-25T13:25:59.763Z,2.17
2022-09-25T13:27:03.460Z,2.25
2022-09-25T13:28:07.621Z,3.55
2022-09-25T13:29:15.075Z,2.08
2022-09-25T13:30:23.853Z,3.63
2022-09-25T13:31:29.653Z,5.43
2022-09-25T13:32:34.779Z,4.20
2022-09-25T13:33:41.769Z,4.20
2022-09-25T13:34:40.641Z,4.38
2022-09-25T13:35:37.241Z,2.35
2022-09-25T13:36:47.545Z,6.60
2022-09-25T13:37:44.463Z,2.15
2022-09-25T13:39:04.531Z,4.35
2022-09-25T13:40:26.419Z,4.10
2022-09-25T13:41:23.032Z,1.85
2022-09-25T13:42:29.959Z,5.38
2022-09-25T13:43:29.205Z,7.65
2022-09-25T13:44:41.276Z,1.48
2022-09-25T13:45:39.663Z,2.15
2022-09-25T13:46:37.730Z,3.30
2022-09-25T13:47:38.517Z,6.75
2022-09-25T13:48:37.614Z,2.20
2022-09-25T13:49:35.801Z,3.15
2022-09-25T13:50:41.256Z,2.65
2022-09-25T13:51:38.125Z,1.85
2022-09-25T13:52:40.612Z,5.53
2022-09-25T13:55:28.072Z,1.85
2022-09-25T13:56:46.337Z,3.28
2022-09-25T13:58:02.087Z,4.72
2022-09-25T13:59:16.127Z,2.60
2022-09-25T14:00:16.463Z,6.72
2022-09-25T14:01:33.363Z,3.58